createdAt,value
2023-05-19T00:03:23.187Z,100263.41
2023-05-19T00:08:27.541Z,100255.41
2023-05-19T00:13:32.882Z,100265.13
2023-05-19T00:18:36.504Z,100261.66
2023-05-19T00:23:40.003Z,100258.97
2023-05-19T00:28:44.576Z,100257.34
2023-05-19T00:33:47.689Z,100259.94
2023-05-19T00:38:51.599Z,100251.00
2023-05-19T00:43:56.602Z,100250.16
2023-05-19T00:49:00.055Z,100235.41
2023-05-19T00:54:03.518Z,100235.91
2023-05-19T00:59:08.757Z,100241.56
2023-05-19T01:04:17.157Z,100239.84
2023-05-19T01:09:21.218Z,100232.72
2023-05-19T01:14:26.117Z,100228.91
2023-05-19T01:19:48.551Z,100221.53
2023-05-19T01:25:21.234Z,100216.25
2023-05-19T01:30:31.545Z,100221.66
2023-05-19T01:35:37.590Z,100230.53
2023-05-19T01:40:42.245Z,100228.31
2023-05-19T01:45:47.916Z,100233.25
2023-05-19T01:50:51.422Z,100241.16
2023-05-19T01:55:56.421Z,100243.22
2023-05-19T02:01:09.176Z,100240.16
2023-05-19T02:06:24.128Z,100243.34
2023-05-19T02:11:36.666Z,100236.38
2023-05-19T02:16:46.344Z,100236.72
2023-05-19T02:21:49.768Z,100236.38
2023-05-19T02:26:54.033Z,100232.81
2023-05-19T02:31:58.828Z,100238.56
2023-05-19T02:37:02.390Z,100234.75
2023-05-19T02:42:06.145Z,100224.78
2023-05-19T02:47:10.630Z,100231.56
2023-05-19T02:52:14.206Z,100222.44
2023-05-19T02:57:17.251Z,100225.91
2023-05-19T03:02:22.231Z,100215.56
2023-05-19T03:07:25.606Z,100219.75
2023-05-19T03:12:28.702Z,100214.84
2023-05-19T03:17:34.593Z,100218.81
2023-05-19T03:22:37.803Z,100219.78
2023-05-19T03:27:41.391Z,100219.78
2023-05-19T03:32:46.020Z,100227.88
2023-05-19T03:37:49.551Z,100234.50
2023-05-19T03:42:54.667Z,100232.91
2023-05-19T03:47:59.117Z,100235.50
2023-05-19T03:53:02.788Z,100231.31
2023-05-19T03:58:06.906Z,100233.78
2023-05-19T04:03:11.895Z,100226.16
2023-05-19T04:08:15.185Z,100220.25
2023-05-19T04:13:18.713Z,100230.84
2023-05-19T04:18:23.116Z,100232.31
2023-05-19T04:23:26.573Z,100229.25
2023-05-19T04:28:29.847Z,100223.72
2023-05-19T04:33:34.617Z,100230.59
2023-05-19T04:38:40.266Z,100232.03
2023-05-19T04:43:44.892Z,100237.69
2023-05-19T04:48:50.331Z,100237.69
2023-05-19T04:53:54.202Z,100245.31
2023-05-19T04:58:57.237Z,100256.38
2023-05-19T05:04:02.529Z,100248.38
2023-05-19T05:09:05.889Z,100241.59
2023-05-19T05:14:09.809Z,100242.06
2023-05-19T05:19:14.900Z,100238.63
2023-05-19T05:24:18.577Z,100241.03
2023-05-19T05:29:22.062Z,100246.63
2023-05-19T05:34:26.850Z,100239.91
2023-05-19T05:39:30.345Z,100246.53
2023-05-19T05:44:35.814Z,100239.31
2023-05-19T05:49:41.848Z,100238.00
2023-05-19T05:54:46.268Z,100233.66
2023-05-19T05:59:50.652Z,100237.78
2023-05-19T06:04:55.652Z,100235.88
2023-05-19T06:09:58.724Z,100239.94
2023-05-19T06:15:03.667Z,100250.94
2023-05-19T06:20:10.094Z,100246.69
2023-05-19T06:25:13.946Z,100244.88
2023-05-19T06:30:17.283Z,100245.06
2023-05-19T06:35:21.943Z,100249.72
2023-05-19T06:40:25.077Z,100246.34
2023-05-19T06:45:28.523Z,100244.88
2023-05-19T06:50:33.228Z,100247.41
2023-05-19T06:55:43.925Z,100250.72
2023-05-19T07:00:53.982Z,100255.06
2023-05-19T07:05:58.921Z,100255.25
2023-05-19T07:11:02.378Z,100247.09
2023-05-19T07:16:06.225Z,100225.28
2023-05-19T07:21:10.604Z,100236.22
2023-05-19T07:26:14.092Z,100237.56
2023-05-19T07:31:18.338Z,100232.56
2023-05-19T07:36:22.798Z,100227.09
2023-05-19T07:41:26.188Z,100219.00
2023-05-19T07:46:29.338Z,100212.41
2023-05-19T07:51:33.908Z,100198.38
2023-05-19T07:56:37.054Z,100192.25
2023-05-19T08:01:40.139Z,100206.44
2023-05-19T08:06:44.627Z,100193.34
2023-05-19T08:11:47.858Z,100205.66
2023-05-19T08:16:51.695Z,100199.22
2023-05-19T08:21:56.185Z,100196.59
2023-05-19T08:26:59.285Z,100189.03
2023-05-19T08:32:03.077Z,100192.28
2023-05-19T08:37:07.680Z,100177.03
2023-05-19T08:42:11.467Z,100174.66
2023-05-19T08:47:16.077Z,100171.72
2023-05-19T08:52:32.359Z,100177.19
2023-05-19T08:57:35.787Z,100171.72
2023-05-19T09:02:50.387Z,100159.72
2023-05-19T09:08:05.481Z,100157.88
2023-05-19T09:13:08.604Z,100162.25
2023-05-19T09:18:13.099Z,100161.63
2023-05-19T09:23:18.829Z,100160.22
2023-05-19T09:28:26.369Z,100146.78
2023-05-19T09:33:30.635Z,100146.06
2023-05-19T09:38:36.892Z,100148.47
2023-05-19T09:43:40.323Z,100145.81
2023-05-19T09:48:44.226Z,100136.44
2023-05-19T09:53:49.455Z,100137.19
2023-05-19T09:58:53.858Z,100120.38
2023-05-19T10:03:57.334Z,100113.34
2023-05-19T10:09:02.670Z,100115.91
2023-05-19T10:14:06.655Z,100113.97
2023-05-19T10:19:10.414Z,100105.59
2023-05-19T10:24:14.886Z,100095.16
2023-05-19T10:29:24.048Z,100093.41
2023-05-19T10:34:50.235Z,100103.69
2023-05-19T10:39:55.558Z,100094.63
2023-05-19T10:45:06.825Z,100082.25
2023-05-19T10:50:11.106Z,100086.00
2023-05-19T10:55:17.452Z,100083.38
2023-05-19T11:00:28.825Z,100089.34
2023-05-19T11:05:32.202Z,100075.25
2023-05-19T11:10:36.856Z,100081.47
2023-05-19T11:15:43.772Z,100067.59
2023-05-19T11:20:58.547Z,100062.38
2023-05-19T11:26:04.153Z,100068.41
2023-05-19T11:31:10.714Z,100059.59
2023-05-19T11:36:14.052Z,100061.69
2023-05-19T11:41:20.759Z,100053.53
2023-05-19T11:46:24.183Z,100049.19
2023-05-19T11:51:27.429Z,100052.22
2023-05-19T11:56:40.944Z,100042.41
2023-05-19T12:01:44.126Z,100056.13
2023-05-19T12:06:49.770Z,100041.34
2023-05-19T12:11:56.094Z,100040.00
2023-05-19T12:16:59.424Z,100038.16
2023-05-19T12:22:04.052Z,100037.41
2023-05-19T12:27:12.819Z,100033.94
2023-05-19T12:32:16.476Z,100029.81
2023-05-19T12:37:20.421Z,100024.25
2023-05-19T12:42:30.874Z,100021.50
2023-05-19T12:47:35.785Z,100004.59
2023-05-19T12:52:43.651Z,100018.47
2023-05-19T12:57:51.510Z,100002.69
2023-05-19T13:03:00.470Z,99998.25
2023-05-19T13:08:06.900Z,99997.38
2023-05-19T13:13:11.492Z,100000.25
2023-05-19T13:18:15.477Z,99992.22
2023-05-19T13:23:18.607Z,99990.28
2023-05-19T13:28:23.743Z,99990.47
2023-05-19T13:33:26.789Z,99984.06
2023-05-19T13:38:30.538Z,99983.50
2023-05-19T13:43:34.973Z,99985.19
2023-05-19T13:48:38.047Z,99976.69
2023-05-19T13:53:41.231Z,99984.75
2023-05-19T13:58:46.098Z,99983.06
2023-05-19T14:03:49.747Z,99982.66
2023-05-19T14:08:53.309Z,99978.66
2023-05-19T14:13:58.053Z,99975.84
2023-05-19T14:19:01.191Z,99986.16
2023-05-19T14:24:04.489Z,99977.81
2023-05-19T14:29:08.898Z,99974.59
2023-05-19T14:34:12.418Z,99966.53
2023-05-19T14:39:15.585Z,99966.09
2023-05-19T14:44:20.292Z,99976.03
2023-05-19T14:49:23.763Z,99978.31
2023-05-19T14:54:27.242Z,99965.22
2023-05-19T14:59:32.022Z,99964.31
2023-05-19T15:04:35.111Z,99953.88
2023-05-19T15:09:38.415Z,99955.91
2023-05-19T15:14:42.822Z,99949.03
2023-05-19T15:19:46.152Z,99949.66
2023-05-19T15:24:49.383Z,99947.22
2023-05-19T15:29:53.914Z,99940.16
2023-05-19T15:34:57.351Z,99942.41
2023-05-19T15:40:00.416Z,99941.09
2023-05-19T15:45:05.784Z,99942.94
2023-05-19T15:50:10.073Z,99942.06
2023-05-19T15:55:13.155Z,99954.47
2023-05-19T16:00:17.793Z,99944.81
2023-05-19T16:05:21.072Z,99946.31
2023-05-19T16:10:24.223Z,99942.91
2023-05-19T16:15:28.626Z,99939.84
2023-05-19T16:20:31.896Z,99941.69
2023-05-19T16:25:35.349Z,99935.53
2023-05-19T16:30:39.785Z,99930.41
2023-05-19T16:35:43.303Z,99935.66
2023-05-19T16:40:46.713Z,99937.63
2023-05-19T16:45:51.108Z,99939.78
2023-05-19T16:50:54.179Z,99925.28
2023-05-19T16:55:58.978Z,99917.59
2023-05-19T17:01:03.978Z,99923.03
2023-05-19T17:06:07.526Z,99923.28
2023-05-19T17:11:10.563Z,99929.56
2023-05-19T17:16:15.048Z,99931.81
2023-05-19T17:21:18.476Z,99931.53
2023-05-19T17:26:22.067Z,99934.56
2023-05-19T17:31:26.684Z,99946.63
2023-05-19T17:36:30.262Z,99944.44
2023-05-19T17:41:33.746Z,99952.75
2023-05-19T17:46:39.209Z,99946.94
2023-05-19T17:51:42.996Z,99940.59
2023-05-19T17:56:46.479Z,99940.53
2023-05-19T18:01:51.915Z,99942.72
2023-05-19T18:06:56.653Z,99943.22
2023-05-19T18:12:01.997Z,99941.53
2023-05-19T18:17:06.943Z,99941.94
2023-05-19T18:22:12.796Z,99938.34
2023-05-19T18:27:15.876Z,99957.69
2023-05-19T18:32:20.234Z,99953.75
2023-05-19T18:37:23.501Z,99957.44
2023-05-19T18:42:26.566Z,99949.84
2023-05-19T18:47:31.412Z,99944.34
2023-05-19T18:52:35.013Z,99946.47
2023-05-19T18:57:38.085Z,99946.78
2023-05-19T19:02:42.897Z,99943.22
2023-05-19T19:07:46.417Z,99952.03
2023-05-19T19:12:49.551Z,99951.31
2023-05-19T19:17:53.983Z,99951.56
2023-05-19T19:22:58.657Z,99969.53
2023-05-19T19:28:02.400Z,99971.28
2023-05-19T19:33:07.054Z,99969.88
2023-05-19T19:38:10.223Z,99975.38
2023-05-19T19:43:13.615Z,99974.66
2023-05-19T19:48:18.247Z,99973.09
2023-05-19T19:53:21.512Z,99969.34
2023-05-19T19:58:25.032Z,99972.06
2023-05-19T20:03:30.202Z,99962.00
2023-05-19T20:08:33.542Z,99967.47
2023-05-19T20:13:36.772Z,99965.59
2023-05-19T20:18:41.412Z,99964.75
2023-05-19T20:23:44.630Z,99965.28
2023-05-19T20:28:47.749Z,99967.53
2023-05-19T20:33:52.271Z,99975.03
2023-05-19T20:38:55.374Z,99966.84
2023-05-19T20:43:58.410Z,99965.16
2023-05-19T20:49:02.961Z,99963.06
2023-05-19T20:54:07.533Z,99967.16
2023-05-19T20:59:10.768Z,99959.59
2023-05-19T21:04:15.261Z,99968.47
2023-05-19T21:09:18.830Z,99965.34
2023-05-19T21:14:22.139Z,99962.16
2023-05-19T21:19:26.945Z,99964.72
2023-05-19T21:24:31.381Z,99978.00
2023-05-19T21:29:34.894Z,99980.59
2023-05-19T21:34:39.748Z,99973.91
2023-05-19T21:39:43.059Z,99968.13
2023-05-19T21:44:46.767Z,99970.53
2023-05-19T21:49:51.639Z,99963.69
2023-05-19T21:54:56.434Z,99968.28
2023-05-19T21:59:59.872Z,99971.19
2023-05-19T22:05:04.410Z,99967.75
2023-05-19T22:10:08.131Z,99972.19
2023-05-19T22:15:13.288Z,99963.28
2023-05-19T22:20:18.100Z,99959.56
2023-05-19T22:25:21.577Z,99952.38
2023-05-19T22:30:25.122Z,99959.34
2023-05-19T22:35:29.776Z,99958.84
2023-05-19T22:40:33.500Z,99958.59
2023-05-19T22:45:37.067Z,99952.00
2023-05-19T22:50:42.033Z,99954.19
2023-05-19T22:55:45.473Z,99946.31
2023-05-19T23:00:48.582Z,99949.19
2023-05-19T23:05:52.990Z,99942.22
2023-05-19T23:11:01.155Z,99941.22
2023-05-19T23:16:04.954Z,99950.59
2023-05-19T23:21:09.776Z,99944.28
2023-05-19T23:26:13.649Z,99936.78
2023-05-19T23:31:17.240Z,99924.00
2023-05-19T23:36:22.126Z,99929.09
2023-05-19T23:41:26.072Z,99930.09
2023-05-19T23:46:29.548Z,99926.69
2023-05-19T23:51:34.613Z,99917.69
2023-05-19T23:56:37.678Z,99928.91
